Time;durP1;ratioP1;P1;durP2;ratioP2;P2;SDS_P1;SDS_P2;PMS_P1;PMS_P2;Temp;Humidity;BMP_temperature;BMP_pressure;BME280_temperature;BME280_humidity;BME280_pressure;Samples;Min_cycle;Max_cycle;Signal;HPM_P1;HPM_P2
2021/07/25 00:00:42;;;;;;;37.90;25.80;;;18.10;99.90;;;;;;5094375;28;20319;-66
2021/07/25 00:03:09;;;;;;;39.30;25.77;;;18.10;99.90;;;;;;5075981;28;20539;-67
2021/07/25 00:05:35;;;;;;;38.77;26.40;;;18.20;99.90;;;;;;5073993;28;20198;-67
2021/07/25 00:08:01;;;;;;;39.40;25.87;;;18.20;99.90;;;;;;5089733;28;20651;-67
2021/07/25 00:10:26;;;;;;;46.03;25.63;;;18.30;99.90;;;;;;5094213;28;20172;-67
2021/07/25 00:12:52;;;;;;;42.53;28.13;;;18.30;99.90;;;;;;5078811;28;20541;-67
2021/07/25 00:15:18;;;;;;;40.93;27.93;;;18.30;99.90;;;;;;5072862;28;20171;-67
2021/07/25 00:17:44;;;;;;;38.87;29.07;;;18.40;99.90;;;;;;5093608;28;20622;-67
2021/07/25 00:20:10;;;;;;;45.40;33.97;;;18.40;99.90;;;;;;5093941;28;20208;-67
2021/07/25 00:22:36;;;;;;;39.20;25.63;;;18.40;99.90;;;;;;5074514;28;20182;-67
2021/07/25 00:25:08;;;;;;;36.83;26.63;;;18.40;99.90;;;;;;5073685;28;20220;-67
2021/07/25 00:27:38;;;;;;;38.90;28.67;;;18.40;99.90;;;;;;5091723;28;20193;-67
2021/07/25 00:30:04;;;;;;;46.07;23.80;;;18.30;99.90;;;;;;5094243;28;20252;-67
2021/07/25 00:32:30;;;;;;;34.43;28.07;;;18.40;99.90;;;;;;5076452;28;20261;-67
2021/07/25 00:34:56;;;;;;;41.47;27.73;;;18.40;99.90;;;;;;5073837;28;20310;-67
2021/07/25 00:37:22;;;;;;;36.43;22.17;;;18.40;99.90;;;;;;5088499;28;20279;-66
2021/07/25 00:39:48;;;;;;;36.23;24.10;;;18.50;99.90;;;;;;5093575;28;20620;-67
2021/07/25 00:42:13;;;;;;;36.00;24.17;;;18.50;99.90;;;;;;5091782;28;20251;-67
2021/07/25 00:44:39;;;;;;;38.10;28.10;;;18.50;99.90;;;;;;5093479;28;20165;-67
2021/07/25 00:47:05;;;;;;;36.17;25.97;;;18.50;99.90;;;;;;5080626;28;20213;-67
2021/07/25 00:49:31;;;;;;;37.23;23.17;;;18.50;99.90;;;;;;5073186;28;20193;-67
2021/07/25 00:51:56;;;;;;;42.23;22.57;;;18.40;99.90;;;;;;5083196;28;20230;-67
2021/07/25 00:54:22;;;;;;;35.97;22.83;;;18.40;99.90;;;;;;5093350;28;20610;-67
2021/07/25 00:56:48;;;;;;;32.53;21.60;;;18.40;99.90;;;;;;5088214;28;20208;-67
2021/07/25 00:59:14;;;;;;;32.70;22.07;;;18.30;99.90;;;;;;5093341;28;20173;-67
2021/07/25 01:01:39;;;;;;;32.27;23.53;;;18.40;99.90;;;;;;5086045;28;20240;-67
2021/07/25 01:04:40;;;;;;;35.07;24.67;;;18.30;99.90;;;;;;5072791;28;20171;-67
2021/07/25 01:07:35;;;;;;;42.23;21.90;;;18.40;99.90;;;;;;5073196;28;20226;-67
2021/07/25 01:10:18;;;;;;;33.73;23.03;;;18.40;99.90;;;;;;5071412;28;20701;-67
2021/07/25 01:12:50;;;;;;;37.13;21.53;;;18.30;99.90;;;;;;5086042;28;20310;-67
2021/07/25 01:15:22;;;;;;;39.03;23.43;;;18.30;99.90;;;;;;5093085;28;20170;-67
2021/07/25 01:17:47;;;;;;;40.13;24.27;;;18.30;99.90;;;;;;5090972;28;20623;-67
2021/07/25 01:20:13;;;;;;;37.30;24.13;;;18.30;99.90;;;;;;5091851;28;20165;-67
2021/07/25 01:22:45;;;;;;;38.63;26.57;;;18.30;99.90;;;;;;5090894;28;20193;-67
2021/07/25 01:25:13;;;;;;;37.97;24.43;;;18.40;99.90;;;;;;5085467;28;20293;-67
2021/07/25 01:27:50;;;;;;;33.57;25.13;;;18.40;99.90;;;;;;5072018;28;20200;-67
2021/07/25 01:30:23;;;;;;;39.67;26.17;;;18.30;99.90;;;;;;5079223;28;20196;-67
2021/07/25 01:32:53;;;;;;;42.37;26.77;;;18.30;99.90;;;;;;5092837;28;20250;-67
2021/07/25 01:35:19;;;;;;;39.33;25.53;;;18.30;99.90;;;;;;5088704;28;20220;-67
2021/07/25 01:37:45;;;;;;;34.03;24.63;;;18.30;99.90;;;;;;5091972;28;20604;-67
2021/07/25 01:40:15;;;;;;;31.20;23.33;;;18.30;99.90;;;;;;5083498;28;20261;-67
2021/07/25 01:42:41;;;;;;;38.43;25.73;;;18.30;99.90;;;;;;5072138;28;20171;-67
2021/07/25 01:45:08;;;;;;;35.50;24.93;;;18.40;99.90;;;;;;5079189;28;20663;-67
2021/07/25 01:47:34;;;;;;;32.90;23.60;;;18.40;99.90;;;;;;5092045;28;20276;-67
2021/07/25 01:50:00;;;;;;;34.37;23.97;;;18.40;99.90;;;;;;5085919;28;20200;-67
2021/07/25 01:52:25;;;;;;;32.73;22.43;;;18.40;99.90;;;;;;5072998;28;20676;-67
2021/07/25 01:54:51;;;;;;;37.93;24.30;;;18.40;99.90;;;;;;5075981;28;20706;-67
2021/07/25 01:57:16;;;;;;;42.90;26.20;;;18.40;99.90;;;;;;5092309;28;20269;-67
2021/07/25 01:59:42;;;;;;;33.07;25.73;;;18.40;99.90;;;;;;5090363;28;20213;-67
2021/07/25 02:02:08;;;;;;;39.13;26.80;;;18.30;99.90;;;;;;5092107;28;20177;-67
2021/07/25 02:04:33;;;;;;;32.10;23.27;;;18.30;99.90;;;;;;5090323;28;20170;-67
2021/07/25 02:06:59;;;;;;;33.57;24.97;;;18.30;99.90;;;;;;5091503;28;20205;-67
2021/07/25 02:09:26;;;;;;;33.20;24.67;;;18.30;99.90;;;;;;5089196;28;20189;-67
2021/07/25 02:11:51;;;;;;;38.30;24.97;;;18.30;99.90;;;;;;5071870;28;20167;-67
2021/07/25 02:14:17;;;;;;;38.97;24.33;;;18.40;99.90;;;;;;5072014;28;20215;-71
2021/07/25 02:16:43;;;;;;;30.87;23.57;;;18.40;99.90;;;;;;5092923;28;20200;-70
2021/07/25 02:19:08;;;;;;;31.17;21.83;;;18.40;99.90;;;;;;5093276;28;20201;-71
2021/07/25 02:21:34;;;;;;;29.87;21.07;;;18.40;99.90;;;;;;5074015;28;20182;-68
2021/07/25 02:24:00;;;;;;;27.77;21.70;;;18.40;99.90;;;;;;5072981;28;20178;-71
2021/07/25 02:26:26;;;;;;;31.63;21.73;;;18.40;99.90;;;;;;5088873;28;20213;-70
2021/07/25 02:28:51;;;;;;;28.60;21.30;;;18.40;99.90;;;;;;5080536;28;20177;-72
2021/07/25 02:31:17;;;;;;;32.00;22.07;;;18.30;99.90;;;;;;5073025;28;20784;-72
2021/07/25 02:33:42;;;;;;;31.37;21.77;;;18.30;99.90;;;;;;5082630;28;20192;-72
2021/07/25 02:36:08;;;;;;;31.83;22.17;;;18.30;99.90;;;;;;5092486;28;20177;-71
2021/07/25 02:38:33;;;;;;;30.40;21.17;;;18.30;99.90;;;;;;5084371;28;20256;-72
2021/07/25 02:41:00;;;;;;;32.80;21.70;;;18.40;99.90;;;;;;5073042;28;20723;-71
2021/07/25 02:43:26;;;;;;;30.80;20.90;;;18.30;99.90;;;;;;5079079;28;20165;-72
2021/07/25 02:45:52;;;;;;;29.27;24.10;;;18.30;99.90;;;;;;5092371;28;20263;-74
2021/07/25 02:48:17;;;;;;;30.27;20.93;;;18.40;99.90;;;;;;5087637;28;20212;-71
2021/07/25 02:50:43;;;;;;;33.03;21.73;;;18.50;99.90;;;;;;5072846;28;20205;-69
2021/07/25 02:53:08;;;;;;;32.90;23.53;;;18.40;99.90;;;;;;5075371;28;20174;-70
2021/07/25 02:55:34;;;;;;;28.43;20.77;;;18.30;99.90;;;;;;5092918;28;20259;-72
2021/07/25 02:58:00;;;;;;;28.83;20.27;;;18.20;99.90;;;;;;5090791;28;20200;-71
2021/07/25 03:00:25;;;;;;;31.13;20.23;;;18.10;99.90;;;;;;5113849;22;20212;-66
2021/07/25 03:02:55;;;;;;;30.00;20.17;;;18.00;99.90;;;;;;5111838;28;20532;-66
2021/07/25 03:05:21;;;;;;;26.80;19.60;;;18.00;99.90;;;;;;5091412;28;20197;-67
2021/07/25 03:07:47;;;;;;;30.47;18.70;;;17.90;99.90;;;;;;5091101;28;20173;-66
2021/07/25 03:10:12;;;;;;;28.37;20.17;;;17.90;99.90;;;;;;5108919;28;20197;-66
2021/07/25 03:12:38;;;;;;;26.23;18.80;;;17.90;99.90;;;;;;5111679;28;20752;-67
2021/07/25 03:15:04;;;;;;;32.67;19.00;;;17.80;99.90;;;;;;5110065;28;20613;-67
2021/07/25 03:17:30;;;;;;;26.17;20.40;;;17.90;99.90;;;;;;5111531;28;20169;-66
2021/07/25 03:19:56;;;;;;;22.77;20.10;;;17.90;99.90;;;;;;5109773;28;20193;-67
2021/07/25 03:22:22;;;;;;;24.13;18.93;;;17.80;99.90;;;;;;5111458;28;20169;-66
2021/07/25 03:24:48;;;;;;;24.90;18.70;;;17.80;99.90;;;;;;5097824;28;20166;-67
2021/07/25 03:27:13;;;;;;;33.67;18.10;;;17.60;99.90;;;;;;5091023;28;20664;-66
2021/07/25 03:29:39;;;;;;;23.37;18.07;;;17.50;99.90;;;;;;5102637;28;20280;-66
2021/07/25 03:32:05;;;;;;;25.73;21.57;;;17.50;99.90;;;;;;5111549;28;20644;-67
2021/07/25 03:34:32;;;;;;;28.73;20.07;;;17.40;99.90;;;;;;5101022;28;20177;-67
2021/07/25 03:36:59;;;;;;;27.13;18.17;;;17.30;99.90;;;;;;5090979;28;20514;-67
2021/07/25 03:39:26;;;;;;;26.97;19.70;;;17.20;99.90;;;;;;5092181;28;20585;-67
2021/07/25 03:41:52;;;;;;;25.33;18.30;;;17.20;99.90;;;;;;5090986;28;20169;-66
2021/07/25 03:44:17;;;;;;;22.63;18.07;;;17.20;99.90;;;;;;5100746;28;20221;-67
2021/07/25 03:46:43;;;;;;;23.90;18.00;;;17.10;99.90;;;;;;5110191;28;20390;-66
2021/07/25 03:49:09;;;;;;;21.67;17.03;;;17.00;99.90;;;;;;5094631;28;20161;-66
2021/07/25 03:51:37;;;;;;;21.23;16.33;;;17.00;99.90;;;;;;5096675;28;21325;-67
2021/07/25 03:54:04;;;;;;;22.67;16.83;;;17.00;99.90;;;;;;5114821;28;20161;-66
2021/07/25 03:56:30;;;;;;;21.97;17.53;;;16.90;99.90;;;;;;5113299;28;20663;-66
2021/07/25 03:58:55;;;;;;;23.60;16.83;;;16.90;99.90;;;;;;5094499;28;20174;-67
2021/07/25 04:01:21;;;;;;;20.77;15.83;;;16.80;99.90;;;;;;5094287;28;20215;-66
2021/07/25 04:03:46;;;;;;;22.60;16.90;;;16.80;99.90;;;;;;5113704;28;20271;-66
2021/07/25 04:06:12;;;;;;;22.30;18.87;;;16.70;99.90;;;;;;5097476;28;20570;-66
2021/07/25 04:08:38;;;;;;;20.80;16.47;;;16.80;99.90;;;;;;5094122;28;20178;-66
2021/07/25 04:11:04;;;;;;;22.00;17.67;;;16.80;99.90;;;;;;5108087;28;20192;-67
2021/07/25 04:13:29;;;;;;;22.27;18.77;;;16.80;99.90;;;;;;5114537;28;20169;-66
2021/07/25 04:15:55;;;;;;;23.90;20.23;;;16.80;99.90;;;;;;5102629;28;20652;-67
2021/07/25 04:18:21;;;;;;;25.33;20.77;;;16.80;99.90;;;;;;5093923;28;20170;-66
2021/07/25 04:20:46;;;;;;;22.93;16.57;;;16.80;99.90;;;;;;5107920;28;20546;-65
2021/07/25 04:23:12;;;;;;;23.50;20.77;;;16.90;99.90;;;;;;5114474;28;20169;-67
2021/07/25 04:25:38;;;;;;;21.77;17.20;;;16.90;99.90;;;;;;5101983;28;20194;-67
2021/07/25 04:28:05;;;;;;;20.30;16.43;;;16.90;99.90;;;;;;5093685;28;20170;-67
2021/07/25 04:30:33;;;;;;;17.90;15.63;;;16.90;99.90;;;;;;5103921;28;20205;-66
2021/07/25 04:32:59;;;;;;;21.57;14.67;;;16.90;99.90;;;;;;5114172;28;20532;-67
2021/07/25 04:35:25;;;;;;;22.03;16.03;;;17.00;99.90;;;;;;5104719;28;20176;-66
2021/07/25 04:37:53;;;;;;;17.97;16.10;;;17.10;99.90;;;;;;5093410;28;20177;-66
2021/07/25 04:40:19;;;;;;;20.97;15.43;;;17.20;99.90;;;;;;5100817;28;20197;-67
2021/07/25 04:42:54;;;;;;;20.50;15.17;;;17.30;99.90;;;;;;5113790;28;20173;-66
2021/07/25 04:45:28;;;;;;;21.23;15.83;;;17.30;99.90;;;;;;5106661;28;20200;-66
2021/07/25 04:48:22;;;;;;;20.70;16.83;;;17.40;99.90;;;;;;5093200;28;20671;-65
2021/07/25 04:50:52;;;;;;;22.13;15.07;;;17.60;99.90;;;;;;5102167;28;20207;-67
2021/07/25 04:53:26;;;;;;;17.47;15.70;;;17.60;99.90;;;;;;5113863;28;20165;-67
2021/07/25 04:56:01;;;;;;;20.17;14.97;;;17.60;99.90;;;;;;5103262;28;20557;-65
2021/07/25 04:58:35;;;;;;;19.13;17.23;;;17.60;99.90;;;;;;5093284;28;20250;-66
2021/07/25 05:01:02;;;;;;;18.10;16.20;;;17.60;99.90;;;;;;5103503;28;20223;-66
2021/07/25 05:03:31;;;;;;;19.73;16.07;;;17.60;99.90;;;;;;5113670;28;20196;-67
2021/07/25 05:05:57;;;;;;;18.13;16.33;;;17.60;99.90;;;;;;5103537;28;20205;-66
2021/07/25 05:08:23;;;;;;;21.10;16.73;;;17.70;99.90;;;;;;5093165;28;20180;-67
2021/07/25 05:10:57;;;;;;;16.80;13.70;;;17.90;99.90;;;;;;5100196;28;20197;-67
2021/07/25 05:13:26;;;;;;;15.27;13.57;;;17.90;99.90;;;;;;5113537;28;20553;-67
2021/07/25 05:15:53;;;;;;;19.23;14.90;;;18.00;99.90;;;;;;5105515;28;20189;-65
2021/07/25 05:18:34;;;;;;;16.83;15.03;;;18.00;99.90;;;;;;5092863;28;20231;-66
2021/07/25 05:21:06;;;;;;;15.07;13.67;;;18.00;99.90;;;;;;5093914;28;20197;-67
2021/07/25 05:23:45;;;;;;;17.30;13.83;;;18.10;99.90;;;;;;5092932;28;20169;-67
2021/07/25 05:26:13;;;;;;;16.73;15.03;;;18.20;99.90;;;;;;5093888;28;20213;-66
2021/07/25 05:28:40;;;;;;;15.87;12.77;;;18.20;99.90;;;;;;5092673;28;20169;-66
2021/07/25 05:31:08;;;;;;;15.77;14.17;;;18.20;99.90;;;;;;5099663;28;20287;-67
2021/07/25 05:33:34;;;;;;;16.17;13.27;;;18.30;99.90;;;;;;5112999;28;20168;-66
2021/07/25 05:36:00;;;;;;;14.77;13.23;;;18.30;99.90;;;;;;5106874;28;20169;-67
2021/07/25 05:38:26;;;;;;;14.47;12.83;;;18.20;99.90;;;;;;5092508;28;20166;-67
2021/07/25 05:40:52;;;;;;;13.20;11.93;;;18.30;99.90;;;;;;5095918;28;20284;-67
2021/07/25 05:43:18;;;;;;;16.20;12.23;;;18.40;99.90;;;;;;5113184;28;20211;-67
2021/07/25 05:45:44;;;;;;;15.07;13.67;;;18.60;99.90;;;;;;5110959;28;20196;-67
2021/07/25 05:48:09;;;;;;;14.20;11.40;;;18.90;99.90;;;;;;5112609;28;20191;-67
2021/07/25 05:50:35;;;;;;;11.57;10.43;;;19.10;99.90;;;;;;5112332;28;20602;-67
2021/07/25 05:53:02;;;;;;;12.60;11.50;;;19.30;99.90;;;;;;5092840;28;20174;-68
2021/07/25 05:55:30;;;;;;;10.73;9.83;;;19.50;99.90;;;;;;5092415;28;20265;-67
2021/07/25 05:57:57;;;;;;;10.33;9.47;;;19.50;99.90;;;;;;5111080;28;20177;-66
2021/07/25 06:00:22;;;;;;;10.13;9.33;;;19.60;99.90;;;;;;5112508;28;20215;-67
2021/07/25 06:02:49;;;;;;;11.20;10.27;;;19.80;99.90;;;;;;5094908;28;20182;-67
2021/07/25 06:05:14;;;;;;;10.27;9.47;;;19.80;99.90;;;;;;5102808;28;20181;-67
2021/07/25 06:07:40;;;;;;;10.13;9.33;;;20.00;99.90;;;;;;5112109;28;20536;-67
2021/07/25 06:10:06;;;;;;;11.83;10.73;;;20.20;99.90;;;;;;5101753;28;20634;-67
2021/07/25 06:12:32;;;;;;;11.27;10.23;;;20.40;99.90;;;;;;5092496;28;20178;-67
2021/07/25 06:14:57;;;;;;;10.43;9.53;;;20.60;99.90;;;;;;5103410;28;20176;-68
2021/07/25 06:17:23;;;;;;;10.47;9.43;;;20.90;99.90;;;;;;5113093;28;20187;-67
2021/07/25 06:19:48;;;;;;;9.40;8.50;;;21.10;99.90;;;;;;5103188;28;20201;-67
2021/07/25 06:22:14;;;;;;;8.98;8.27;;;21.20;99.90;;;;;;5093930;28;20184;-67
2021/07/25 06:24:39;;;;;;;9.02;8.13;;;21.50;99.90;;;;;;5099989;28;20630;-68
2021/07/25 06:27:05;;;;;;;8.20;7.57;;;21.60;99.90;;;;;;5112729;28;20192;-67
2021/07/25 06:29:30;;;;;;;8.93;8.23;;;21.90;99.90;;;;;;5106673;28;20268;-67
2021/07/25 06:31:56;;;;;;;8.32;7.63;;;22.10;99.90;;;;;;5092898;28;20168;-67
2021/07/25 06:34:22;;;;;;;7.93;7.32;;;22.30;99.90;;;;;;5096558;28;20546;-67
2021/07/25 06:36:47;;;;;;;8.30;7.60;;;22.60;99.90;;;;;;5112655;28;20314;-67
2021/07/25 06:39:13;;;;;;;7.90;7.25;;;22.90;99.90;;;;;;5111483;28;20173;-67
2021/07/25 06:41:38;;;;;;;7.30;6.75;;;23.10;99.90;;;;;;5092653;28;20212;-67
2021/07/25 06:44:04;;;;;;;9.05;8.02;;;23.50;99.90;;;;;;5092826;28;20169;-67
2021/07/25 06:46:30;;;;;;;7.45;6.53;;;23.80;99.90;;;;;;5093514;28;20687;-67
2021/07/25 06:48:55;;;;;;;8.45;7.07;;;23.90;99.90;;;;;;5092629;28;20180;-68
2021/07/25 06:51:21;;;;;;;9.32;6.90;;;24.40;99.90;;;;;;5111275;28;20193;-68
2021/07/25 06:53:46;;;;;;;7.90;7.15;;;24.90;99.90;;;;;;5105363;28;20273;-67
2021/07/25 06:56:13;;;;;;;8.15;7.55;;;25.10;99.90;;;;;;5092357;28;20177;-67
2021/07/25 06:58:39;;;;;;;6.72;6.05;;;25.30;99.90;;;;;;5098261;28;20639;-67
2021/07/25 07:01:04;;;;;;;8.52;6.57;;;25.60;99.90;;;;;;5111525;28;20212;-67
2021/07/25 07:03:30;;;;;;;6.68;6.07;;;25.70;99.90;;;;;;5108550;28;20178;-67
2021/07/25 07:05:56;;;;;;;7.68;6.60;;;25.70;99.90;;;;;;5092248;28;20664;-68
2021/07/25 07:08:23;;;;;;;7.95;7.15;;;25.80;99.90;;;;;;5094034;28;20177;-67
2021/07/25 07:10:48;;;;;;;6.50;5.97;;;25.80;99.90;;;;;;5112481;28;20184;-67
2021/07/25 07:13:16;;;;;;;6.88;6.28;;;26.00;99.90;;;;;;5100392;28;20180;-67
2021/07/25 07:15:43;;;;;;;8.27;7.65;;;26.10;99.90;;;;;;5092286;28;20166;-67
2021/07/25 07:18:10;;;;;;;7.97;6.40;;;26.10;99.90;;;;;;5094287;28;20670;-67
2021/07/25 07:20:35;;;;;;;7.00;6.40;;;26.20;99.90;;;;;;5095299;28;20206;-67
2021/07/25 07:23:06;;;;;;;7.50;6.90;;;26.30;99.90;;;;;;5104335;28;20181;-67
2021/07/25 07:25:35;;;;;;;7.03;6.40;;;26.40;99.90;;;;;;5119212;28;20193;-67
2021/07/25 07:28:01;;;;;;;6.88;6.13;;;26.60;99.90;;;;;;5114563;28;20267;-67
2021/07/25 07:30:27;;;;;;;6.97;6.25;;;26.80;99.90;;;;;;5105256;28;20565;-68
2021/07/25 07:32:53;;;;;;;8.00;6.65;;;27.00;99.90;;;;;;5103512;28;20192;-67
2021/07/25 07:35:23;;;;;;;8.93;6.18;;;27.30;99.90;;;;;;5118270;28;20244;-67
2021/07/25 07:37:49;;;;;;;6.35;5.88;;;27.50;99.90;;;;;;5112700;28;20267;-67
2021/07/25 07:40:16;;;;;;;7.40;6.88;;;27.50;99.90;;;;;;5115079;28;20189;-66
2021/07/25 07:42:41;;;;;;;6.72;6.22;;;27.60;99.90;;;;;;5099026;28;20177;-66
2021/07/25 07:45:10;;;;;;;6.80;6.30;;;27.80;99.90;;;;;;5100095;28;20194;-66
2021/07/25 07:47:35;;;;;;;6.65;6.05;;;28.00;99.90;;;;;;5114931;28;20180;-66
2021/07/25 07:50:01;;;;;;;6.10;5.60;;;28.20;99.90;;;;;;5113379;28;20189;-67
2021/07/25 07:52:27;;;;;;;7.40;6.63;;;28.40;99.90;;;;;;5107160;28;20169;-67
2021/07/25 07:54:52;;;;;;;6.93;6.43;;;28.40;99.90;;;;;;5095374;28;20173;-67
2021/07/25 07:57:18;;;;;;;7.28;6.60;;;28.40;99.90;;;;;;5100941;28;20230;-67
2021/07/25 07:59:43;;;;;;;6.78;6.30;;;28.30;99.90;;;;;;5100840;28;20264;-65
2021/07/25 08:02:09;;;;;;;8.10;7.43;;;28.30;99.90;;;;;;5093148;28;20219;-67
2021/07/25 08:04:35;;;;;;;7.53;6.72;;;28.20;99.90;;;;;;5095546;28;20268;-66
2021/07/25 08:07:01;;;;;;;7.53;6.88;;;28.20;99.90;;;;;;5103803;28;20200;-66
2021/07/25 08:09:27;;;;;;;6.07;5.68;;;28.30;99.90;;;;;;5108122;28;20223;-67
2021/07/25 08:11:53;;;;;;;8.25;7.55;;;28.40;99.90;;;;;;5093650;28;20264;-66
2021/07/25 08:14:19;;;;;;;6.78;6.30;;;28.60;99.90;;;;;;5095103;28;20173;-66
2021/07/25 08:16:47;;;;;;;6.30;5.80;;;28.70;99.90;;;;;;5093539;28;20166;-67
2021/07/25 08:19:13;;;;;;;7.40;6.80;;;28.90;99.90;;;;;;5096730;28;20173;-66
2021/07/25 08:21:40;;;;;;;5.75;5.35;;;29.10;99.90;;;;;;5112436;28;20208;-65
2021/07/25 08:24:07;;;;;;;8.10;7.40;;;29.50;99.90;;;;;;5113135;28;20252;-67
2021/07/25 08:26:33;;;;;;;5.53;5.03;;;29.80;99.90;;;;;;5104557;28;20208;-67
2021/07/25 08:28:59;;;;;;;5.60;5.10;;;30.10;99.90;;;;;;5113672;28;20592;-66
2021/07/25 08:31:24;;;;;;;4.43;4.13;;;30.50;99.90;;;;;;5097205;28;20193;-66
2021/07/25 08:33:50;;;;;;;5.13;4.80;;;30.70;99.90;;;;;;5093548;28;20726;-66
2021/07/25 08:36:16;;;;;;;5.65;4.85;;;30.80;99.90;;;;;;5093364;28;20176;-67
2021/07/25 08:38:42;;;;;;;5.10;4.70;;;30.90;99.90;;;;;;5094532;28;20182;-67
2021/07/25 08:41:13;;;;;;;5.25;4.95;;;31.00;99.90;;;;;;5093661;28;20185;-67
2021/07/25 08:43:43;;;;;;;5.20;4.70;;;31.10;99.90;;;;;;5109702;28;20720;-66
2021/07/25 08:46:17;;;;;;;5.40;5.00;;;30.50;99.90;;;;;;5113491;28;20232;-67
2021/07/25 08:48:52;;;;;;;5.22;4.90;;;29.80;99.90;;;;;;5097026;28;20173;-66
2021/07/25 08:51:21;;;;;;;6.22;5.72;;;29.70;99.90;;;;;;5094962;28;20187;-67
2021/07/25 08:54:03;;;;;;;5.63;5.18;;;29.80;99.90;;;;;;5113738;28;20185;-66
2021/07/25 08:56:30;;;;;;;5.82;5.32;;;30.00;99.90;;;;;;5110790;28;20180;-67
2021/07/25 08:58:59;;;;;;;7.18;6.50;;;30.40;99.90;;;;;;5093205;28;20177;-66
2021/07/25 09:01:40;;;;;;;5.10;4.60;;;30.70;99.90;;;;;;5094869;28;20235;-66
2021/07/25 09:04:06;;;;;;;5.50;5.03;;;30.50;99.90;;;;;;5113725;28;20199;-66
2021/07/25 09:06:48;;;;;;;7.03;5.78;;;30.30;99.90;;;;;;5110785;27;20197;-66
2021/07/25 09:09:15;;;;;;;4.90;4.50;;;30.30;99.90;;;;;;5093194;28;20169;-66
2021/07/25 09:11:41;;;;;;;4.90;4.50;;;30.60;99.90;;;;;;5095547;28;20266;-66
2021/07/25 09:14:06;;;;;;;5.13;4.72;;;31.00;99.90;;;;;;5113455;28;20168;-66
2021/07/25 09:16:34;;;;;;;7.63;4.68;;;31.40;99.90;;;;;;5111738;28;20164;-67
2021/07/25 09:19:00;;;;;;;9.07;8.20;;;31.50;99.90;;;;;;5092722;28;20730;-66
2021/07/25 09:21:42;;;;;;;5.97;5.55;;;31.90;99.90;;;;;;5092803;28;20201;-67
2021/07/25 09:24:29;;;;;;;4.97;4.57;;;32.20;99.90;;;;;;5093321;28;20176;-66
2021/07/25 09:27:12;;;;;;;4.43;4.13;;;32.70;99.90;;;;;;5094944;28;20238;-66
2021/07/25 09:29:38;;;;;;;4.65;4.35;;;33.10;99.90;;;;;;5112985;28;20235;-66
2021/07/25 09:32:18;;;;;;;5.90;5.50;;;32.90;99.90;;;;;;5111444;28;20194;-66
2021/07/25 09:46:16;;;;;;;4.18;3.97;;;33.00;99.90;;;;;;5128997;27;21128;-67
2021/07/25 09:48:41;;;;;;;4.50;4.25;;;31.00;99.90;;;;;;5127542;27;20179;-67
2021/07/25 09:51:16;;;;;;;7.05;5.50;;;30.60;99.90;;;;;;5128677;28;20176;-68
2021/07/25 09:53:49;;;;;;;5.63;5.13;;;30.30;99.90;;;;;;5129517;27;20207;-67
2021/07/25 09:56:18;;;;;;;5.25;4.95;;;30.20;99.90;;;;;;5115576;28;20258;-67
2021/07/25 09:58:44;;;;;;;5.22;4.88;;;30.20;99.90;;;;;;5109083;28;20173;-67
2021/07/25 10:01:10;;;;;;;5.53;5.13;;;30.20;99.90;;;;;;5121366;28;20169;-68
2021/07/25 10:03:36;;;;;;;5.28;4.90;;;30.60;99.90;;;;;;5120986;27;20176;-67
2021/07/25 10:06:22;;;;;;;8.40;5.38;;;30.70;99.90;;;;;;5108411;28;20187;-69
2021/07/25 10:08:48;;;;;;;6.28;5.85;;;30.70;99.90;;;;;;5117683;28;20669;-67
2021/07/25 10:11:21;;;;;;;12.45;4.93;;;30.20;99.90;;;;;;5128819;27;20361;-68
2021/07/25 10:13:50;;;;;;;8.07;5.65;;;29.60;99.90;;;;;;5120508;27;20203;-68
2021/07/25 10:16:20;;;;;;;5.55;5.03;;;29.40;99.90;;;;;;5108204;28;20188;-67
2021/07/25 10:18:48;;;;;;;5.20;4.70;;;29.00;99.90;;;;;;5112244;28;20181;-68
2021/07/25 10:21:15;;;;;;;5.88;5.47;;;28.20;99.90;;;;;;5108444;28;20568;-67
2021/07/25 10:23:46;;;;;;;6.05;5.60;;;27.60;99.90;;;;;;5118729;28;20191;-68
2021/07/25 10:40:30;;;;;;;6.13;5.53;;;26.00;99.90;;;;;;5128955;27;20590;-65
2021/07/25 10:42:56;;;;;;;5.50;5.18;;;25.80;99.90;;;;;;5128791;28;20263;-65
2021/07/25 10:45:21;;;;;;;6.35;5.85;;;25.90;99.90;;;;;;5129645;28;20195;-66
2021/07/25 10:47:47;;;;;;;9.48;8.98;;;26.20;99.90;;;;;;5110664;28;20218;-65
2021/07/25 11:03:34;;;;;;;4.50;4.20;;;27.20;99.90;;;;;;5129166;27;20900;-68
2021/07/25 11:06:07;;;;;;;4.45;4.15;;;34.30;99.90;;;;;;5129068;27;20168;-66
2021/07/25 11:08:43;;;;;;;4.03;3.72;;;34.90;99.90;;;;;;5129581;27;20229;-67
2021/07/25 11:11:29;;;;;;;4.18;3.88;;;35.50;99.90;;;;;;5127701;27;20164;-67
2021/07/25 11:13:55;;;;;;;4.82;4.35;;;35.50;99.90;;;;;;5108857;28;20192;-67
2021/07/25 11:16:29;;;;;;;4.75;4.43;;;35.30;99.90;;;;;;5112396;28;20541;-67
2021/07/25 11:19:15;;;;;;;3.88;3.63;;;35.50;99.90;;;;;;5129473;27;20190;-67
2021/07/25 11:21:45;;;;;;;4.63;4.32;;;34.70;99.90;;;;;;5127346;27;20192;-67
2021/07/25 11:24:19;;;;;;;3.80;3.53;;;33.80;99.90;;;;;;5129336;27;20204;-67
2021/07/25 11:26:46;;;;;;;5.05;4.38;;;33.50;99.90;;;;;;5123889;27;20414;-67
2021/07/25 11:29:30;;;;;;;5.13;4.82;;;33.80;99.90;;;;;;5108909;28;20286;-67
2021/07/25 11:31:56;;;;;;;4.35;3.97;;;33.60;99.90;;;;;;5115132;28;20627;-67
2021/07/25 11:34:39;;;;;;;4.60;4.20;;;33.40;99.90;;;;;;5129171;27;20261;-67
2021/07/25 11:37:08;;;;;;;4.05;3.75;;;33.00;99.90;;;;;;5122194;27;20667;-67
2021/07/25 11:39:34;;;;;;;3.78;3.58;;;33.10;99.90;;;;;;5108697;28;20225;-67
2021/07/25 11:42:05;;;;;;;4.40;4.07;;;33.00;99.90;;;;;;5112497;28;20663;-67
2021/07/25 11:44:32;;;;;;;4.93;4.53;;;33.40;99.90;;;;;;5128887;27;20196;-67
2021/07/25 11:46:59;;;;;;;5.85;5.45;;;33.60;99.90;;;;;;5127336;27;20194;-67
2021/07/25 11:49:38;;;;;;;4.40;4.00;;;33.80;99.90;;;;;;5129230;27;20252;-67
2021/07/25 11:52:05;;;;;;;4.55;4.22;;;34.10;99.90;;;;;;5124049;27;20177;-67
2021/07/25 11:54:36;;;;;;;3.80;3.60;;;34.50;99.90;;;;;;5107151;28;20192;-67
2021/07/25 11:57:04;;;;;;;4.15;3.72;;;35.00;99.90;;;;;;5112793;28;20187;-67
2021/07/25 11:59:35;;;;;;;4.90;4.50;;;34.30;99.90;;;;;;5128953;27;20176;-67
2021/07/25 12:02:01;;;;;;;3.63;3.42;;;34.50;99.90;;;;;;5123567;27;20245;-67
2021/07/25 12:04:36;;;;;;;5.10;4.65;;;34.50;99.90;;;;;;5109529;27;20204;-68
2021/07/25 12:07:11;;;;;;;4.53;4.32;;;34.30;99.90;;;;;;5103030;28;20623;-68
2021/07/25 12:09:38;;;;;;;4.30;4.00;;;34.50;99.90;;;;;;5113690;27;20251;-67
2021/07/25 12:12:12;;;;;;;3.60;3.40;;;34.80;99.90;;;;;;5107920;27;20174;-68
2021/07/25 12:14:41;;;;;;;5.03;4.60;;;35.00;99.90;;;;;;5094415;28;20197;-67
2021/07/25 12:17:07;;;;;;;4.78;3.83;;;35.20;99.90;;;;;;5114811;28;20172;-68
2021/07/25 12:19:38;;;;;;;5.20;4.90;;;34.90;99.90;;;;;;5114748;28;20164;-68
2021/07/25 12:22:13;;;;;;;5.63;5.22;;;34.60;99.90;;;;;;5094275;28;20208;-68
2021/07/25 12:24:44;;;;;;;4.57;4.28;;;34.00;99.90;;;;;;5093143;28;20239;-68
2021/07/25 12:27:31;;;;;;;4.38;4.07;;;33.50;99.90;;;;;;5094201;28;20604;-67
2021/07/25 12:30:14;;;;;;;6.07;5.68;;;32.90;99.90;;;;;;5111479;28;20172;-67
2021/07/25 12:32:40;;;;;;;4.63;4.32;;;33.10;99.90;;;;;;5114104;28;20196;-67
2021/07/25 12:35:09;;;;;;;5.47;5.18;;;33.60;99.90;;;;;;5094378;28;20640;-68
2021/07/25 12:37:48;;;;;;;5.50;5.10;;;34.00;99.90;;;;;;5094126;28;20184;-70
2021/07/25 12:40:21;;;;;;;6.65;6.25;;;34.20;99.90;;;;;;5114085;28;20268;-67
2021/07/25 12:42:49;;;;;;;5.60;5.10;;;34.10;99.90;;;;;;5110056;28;20206;-68
2021/07/25 12:45:33;;;;;;;5.20;4.40;;;34.50;99.90;;;;;;5113543;28;20207;-67
2021/07/25 12:48:15;;;;;;;4.72;4.32;;;34.90;99.90;;;;;;5108522;28;20669;-68
2021/07/25 12:53:42;;;;;;;4.60;4.30;;;34.30;99.90;;;;;;5101941;28;20197;-68
2021/07/25 12:56:13;;;;;;;6.15;5.65;;;33.40;99.90;;;;;;5114273;28;20198;-67
2021/07/25 12:58:48;;;;;;;5.30;4.90;;;32.70;99.90;;;;;;5112132;28;20613;-67
2021/07/25 13:03:57;;;;;;;7.03;6.53;;;32.90;99.90;;;;;;5113333;28;20188;-67
2021/07/25 13:06:34;;;;;;;4.97;4.50;;;33.60;99.90;;;;;;5107518;28;20640;-68
2021/07/25 13:09:20;;;;;;;5.50;5.05;;;33.50;99.90;;;;;;5093074;28;20180;-68
2021/07/25 13:11:54;;;;;;;4.85;4.45;;;32.60;99.90;;;;;;5106037;28;20196;-67
2021/07/25 13:14:24;;;;;;;4.75;4.50;;;32.10;99.90;;;;;;5112280;28;20188;-67
2021/07/25 13:16:50;;;;;;;5.38;4.88;;;31.60;99.90;;;;;;5098978;28;20607;-67
2021/07/25 13:19:16;;;;;;;5.78;5.38;;;30.90;99.90;;;;;;5092930;28;20200;-67
2021/07/25 13:21:42;;;;;;;4.70;4.30;;;30.40;99.90;;;;;;5093733;28;20201;-67
2021/07/25 13:24:11;;;;;;;4.95;4.55;;;30.10;99.90;;;;;;5092378;28;20618;-67
2021/07/25 13:26:37;;;;;;;4.93;4.63;;;29.80;99.90;;;;;;5102441;28;20531;-67
2021/07/25 13:29:02;;;;;;;5.13;4.82;;;29.90;99.90;;;;;;5112902;28;20248;-67